sensor_id;sensor_type;location;lat;lon;timestamp;P1;durP1;ratioP1;P2;durP2;ratioP2
38853;SDS011;24606;51.992;4.198;2023-08-12T00:03:05;2.13;;;0.82;;
38853;SDS011;24606;51.992;4.198;2023-08-12T00:08:08;1.30;;;0.63;;
38853;SDS011;24606;51.992;4.198;2023-08-12T00:13:11;0.90;;;0.60;;
38853;SDS011;24606;51.992;4.198;2023-08-12T00:18:17;1.75;;;0.70;;
38853;SDS011;24606;51.992;4.198;2023-08-12T00:23:19;1.08;;;0.65;;
38853;SDS011;24606;51.992;4.198;2023-08-12T00:28:22;0.98;;;0.68;;
38853;SDS011;24606;51.992;4.198;2023-08-12T00:33:24;3.88;;;0.77;;
38853;SDS011;24606;51.992;4.198;2023-08-12T00:38:26;1.17;;;0.65;;
38853;SDS011;24606;51.992;4.198;2023-08-12T00:43:30;1.58;;;0.68;;
38853;SDS011;24606;51.992;4.198;2023-08-12T00:48:32;1.10;;;0.80;;
38853;SDS011;24606;51.992;4.198;2023-08-12T00:53:34;1.27;;;0.63;;
38853;SDS011;24606;51.992;4.198;2023-08-12T00:58:38;1.70;;;0.60;;
38853;SDS011;24606;51.992;4.198;2023-08-12T01:03:41;2.35;;;0.93;;
38853;SDS011;24606;51.992;4.198;2023-08-12T01:08:43;1.20;;;0.52;;
38853;SDS011;24606;51.992;4.198;2023-08-12T01:13:57;0.93;;;0.60;;
38853;SDS011;24606;51.992;4.198;2023-08-12T01:19:03;1.70;;;0.60;;
38853;SDS011;24606;51.992;4.198;2023-08-12T01:24:09;1.38;;;0.60;;
38853;SDS011;24606;51.992;4.198;2023-08-12T01:29:11;2.03;;;0.70;;
38853;SDS011;24606;51.992;4.198;2023-08-12T01:34:14;3.42;;;0.70;;
38853;SDS011;24606;51.992;4.198;2023-08-12T01:39:24;2.75;;;0.80;;
38853;SDS011;24606;51.992;4.198;2023-08-12T01:44:29;2.25;;;1.15;;
38853;SDS011;24606;51.992;4.198;2023-08-12T01:49:30;1.58;;;0.70;;
38853;SDS011;24606;51.992;4.198;2023-08-12T01:54:34;3.20;;;0.90;;
38853;SDS011;24606;51.992;4.198;2023-08-12T01:59:36;2.83;;;0.70;;
38853;SDS011;24606;51.992;4.198;2023-08-12T02:04:39;2.85;;;0.82;;
38853;SDS011;24606;51.992;4.198;2023-08-12T02:09:44;2.10;;;0.63;;
38853;SDS011;24606;51.992;4.198;2023-08-12T02:14:46;1.95;;;0.80;;
38853;SDS011;24606;51.992;4.198;2023-08-12T02:19:48;1.00;;;0.60;;
38853;SDS011;24606;51.992;4.198;2023-08-12T02:24:51;1.33;;;0.60;;
38853;SDS011;24606;51.992;4.198;2023-08-12T02:29:53;3.40;;;1.10;;
38853;SDS011;24606;51.992;4.198;2023-08-12T02:34:55;2.58;;;1.52;;
38853;SDS011;24606;51.992;4.198;2023-08-12T02:39:58;0.85;;;0.60;;
38853;SDS011;24606;51.992;4.198;2023-08-12T02:45:00;3.92;;;0.57;;
38853;SDS011;24606;51.992;4.198;2023-08-12T02:50:02;2.13;;;0.73;;
38853;SDS011;24606;51.992;4.198;2023-08-12T02:55:05;1.17;;;0.75;;
38853;SDS011;24606;51.992;4.198;2023-08-12T03:15:28;2.72;;;0.90;;
38853;SDS011;24606;51.992;4.198;2023-08-12T03:20:30;2.80;;;0.70;;
38853;SDS011;24606;51.992;4.198;2023-08-12T03:25:32;1.95;;;1.02;;
38853;SDS011;24606;51.992;4.198;2023-08-12T03:30:35;5.13;;;1.77;;
38853;SDS011;24606;51.992;4.198;2023-08-12T03:35:37;1.15;;;0.70;;
38853;SDS011;24606;51.992;4.198;2023-08-12T03:40:38;2.78;;;0.70;;
38853;SDS011;24606;51.992;4.198;2023-08-12T03:45:42;1.60;;;0.98;;
38853;SDS011;24606;51.992;4.198;2023-08-12T03:50:45;1.42;;;0.88;;
38853;SDS011;24606;51.992;4.198;2023-08-12T03:55:47;1.88;;;0.80;;
38853;SDS011;24606;51.992;4.198;2023-08-12T04:00:50;1.23;;;0.73;;
38853;SDS011;24606;51.992;4.198;2023-08-12T04:05:52;1.92;;;0.98;;
38853;SDS011;24606;51.992;4.198;2023-08-12T04:10:54;2.03;;;1.05;;
38853;SDS011;24606;51.992;4.198;2023-08-12T04:15:58;2.30;;;0.98;;
38853;SDS011;24606;51.992;4.198;2023-08-12T04:20:59;2.25;;;1.13;;
38853;SDS011;24606;51.992;4.198;2023-08-12T04:26:01;3.33;;;1.58;;
38853;SDS011;24606;51.992;4.198;2023-08-12T04:31:05;2.83;;;1.10;;
38853;SDS011;24606;51.992;4.198;2023-08-12T04:36:08;4.05;;;1.10;;
38853;SDS011;24606;51.992;4.198;2023-08-12T04:41:09;2.28;;;1.23;;
38853;SDS011;24606;51.992;4.198;2023-08-12T04:46:12;3.90;;;1.17;;
38853;SDS011;24606;51.992;4.198;2023-08-12T04:51:14;2.92;;;1.55;;
38853;SDS011;24606;51.992;4.198;2023-08-12T04:56:16;3.85;;;1.20;;
38853;SDS011;24606;51.992;4.198;2023-08-12T05:01:19;3.75;;;1.40;;
38853;SDS011;24606;51.992;4.198;2023-08-12T05:06:21;3.30;;;1.75;;
38853;SDS011;24606;51.992;4.198;2023-08-12T05:11:24;3.22;;;1.73;;
38853;SDS011;24606;51.992;4.198;2023-08-12T05:16:27;3.67;;;2.25;;
38853;SDS011;24606;51.992;4.198;2023-08-12T05:21:29;2.15;;;1.83;;
38853;SDS011;24606;51.992;4.198;2023-08-12T05:26:32;4.88;;;1.98;;
38853;SDS011;24606;51.992;4.198;2023-08-12T05:31:35;3.50;;;1.63;;
38853;SDS011;24606;51.992;4.198;2023-08-12T05:36:37;2.15;;;1.50;;
38853;SDS011;24606;51.992;4.198;2023-08-12T05:41:39;4.25;;;1.70;;
38853;SDS011;24606;51.992;4.198;2023-08-12T05:46:42;2.35;;;1.50;;
38853;SDS011;24606;51.992;4.198;2023-08-12T05:51:44;2.38;;;1.40;;
38853;SDS011;24606;51.992;4.198;2023-08-12T05:56:46;3.88;;;1.60;;
38853;SDS011;24606;51.992;4.198;2023-08-12T06:01:50;8.45;;;1.98;;
38853;SDS011;24606;51.992;4.198;2023-08-12T06:06:52;8.48;;;1.77;;
38853;SDS011;24606;51.992;4.198;2023-08-12T06:11:53;5.47;;;1.58;;
38853;SDS011;24606;51.992;4.198;2023-08-12T06:16:56;5.72;;;2.60;;
38853;SDS011;24606;51.992;4.198;2023-08-12T06:21:58;1.80;;;1.60;;
38853;SDS011;24606;51.992;4.198;2023-08-12T06:27:00;3.78;;;2.90;;
38853;SDS011;24606;51.992;4.198;2023-08-12T06:32:04;2.08;;;1.58;;
38853;SDS011;24606;51.992;4.198;2023-08-12T06:37:06;1.95;;;1.65;;
38853;SDS011;24606;51.992;4.198;2023-08-12T06:42:08;5.78;;;1.65;;
38853;SDS011;24606;51.992;4.198;2023-08-12T06:52:12;4.22;;;1.23;;
38853;SDS011;24606;51.992;4.198;2023-08-12T06:57:14;3.85;;;1.33;;
38853;SDS011;24606;51.992;4.198;2023-08-12T07:07:19;3.80;;;1.33;;
38853;SDS011;24606;51.992;4.198;2023-08-12T07:17:24;2.78;;;0.85;;
38853;SDS011;24606;51.992;4.198;2023-08-12T07:22:26;3.05;;;0.95;;
38853;SDS011;24606;51.992;4.198;2023-08-12T07:27:28;4.50;;;1.48;;
38853;SDS011;24606;51.992;4.198;2023-08-12T07:32:31;2.95;;;0.80;;
38853;SDS011;24606;51.992;4.198;2023-08-12T07:37:33;3.25;;;0.80;;
38853;SDS011;24606;51.992;4.198;2023-08-12T07:42:35;5.95;;;1.10;;
38853;SDS011;24606;51.992;4.198;2023-08-12T07:47:38;3.95;;;1.10;;
38853;SDS011;24606;51.992;4.198;2023-08-12T07:52:40;3.97;;;0.75;;
38853;SDS011;24606;51.992;4.198;2023-08-12T07:57:42;2.60;;;1.20;;
38853;SDS011;24606;51.992;4.198;2023-08-12T08:02:47;2.60;;;0.93;;
38853;SDS011;24606;51.992;4.198;2023-08-12T08:07:49;6.25;;;1.20;;
38853;SDS011;24606;51.992;4.198;2023-08-12T08:12:51;6.03;;;1.33;;
38853;SDS011;24606;51.992;4.198;2023-08-12T08:17:54;5.45;;;0.90;;
38853;SDS011;24606;51.992;4.198;2023-08-12T08:22:56;5.32;;;1.42;;
38853;SDS011;24606;51.992;4.198;2023-08-12T08:27:58;4.72;;;0.90;;
38853;SDS011;24606;51.992;4.198;2023-08-12T08:33:01;4.80;;;0.93;;
38853;SDS011;24606;51.992;4.198;2023-08-12T08:38:03;4.07;;;0.90;;
38853;SDS011;24606;51.992;4.198;2023-08-12T08:43:05;6.55;;;1.33;;
38853;SDS011;24606;51.992;4.198;2023-08-12T08:48:10;7.25;;;1.27;;
38853;SDS011;24606;51.992;4.198;2023-08-12T08:53:13;5.20;;;1.20;;
38853;SDS011;24606;51.992;4.198;2023-08-12T08:58:17;5.40;;;0.98;;
38853;SDS011;24606;51.992;4.198;2023-08-12T09:03:20;10.05;;;1.35;;
38853;SDS011;24606;51.992;4.198;2023-08-12T09:08:23;4.20;;;1.48;;
38853;SDS011;24606;51.992;4.198;2023-08-12T09:13:27;7.03;;;1.40;;
38853;SDS011;24606;51.992;4.198;2023-08-12T09:18:31;9.32;;;1.40;;
38853;SDS011;24606;51.992;4.198;2023-08-12T09:23:34;6.40;;;1.48;;
38853;SDS011;24606;51.992;4.198;2023-08-12T09:28:36;4.25;;;1.20;;
38853;SDS011;24606;51.992;4.198;2023-08-12T09:33:40;5.95;;;1.33;;
38853;SDS011;24606;51.992;4.198;2023-08-12T09:38:41;8.23;;;1.52;;
38853;SDS011;24606;51.992;4.198;2023-08-12T09:43:44;5.15;;;1.20;;
38853;SDS011;24606;51.992;4.198;2023-08-12T09:48:47;3.42;;;1.13;;
38853;SDS011;24606;51.992;4.198;2023-08-12T09:53:51;5.85;;;2.00;;
38853;SDS011;24606;51.992;4.198;2023-08-12T09:58:53;6.82;;;1.50;;
38853;SDS011;24606;51.992;4.198;2023-08-12T10:03:57;6.80;;;1.75;;
38853;SDS011;24606;51.992;4.198;2023-08-12T10:09:00;7.38;;;1.55;;
38853;SDS011;24606;51.992;4.198;2023-08-12T10:14:03;7.22;;;1.55;;
38853;SDS011;24606;51.992;4.198;2023-08-12T10:19:10;4.72;;;1.85;;
38853;SDS011;24606;51.992;4.198;2023-08-12T10:24:12;6.90;;;1.52;;
38853;SDS011;24606;51.992;4.198;2023-08-12T10:29:17;7.63;;;1.50;;
38853;SDS011;24606;51.992;4.198;2023-08-12T10:34:21;9.20;;;1.52;;
38853;SDS011;24606;51.992;4.198;2023-08-12T10:39:24;8.50;;;1.40;;
38853;SDS011;24606;51.992;4.198;2023-08-12T10:44:38;6.57;;;1.67;;
38853;SDS011;24606;51.992;4.198;2023-08-12T10:49:43;4.95;;;1.52;;
38853;SDS011;24606;51.992;4.198;2023-08-12T10:54:48;10.57;;;2.10;;
38853;SDS011;24606;51.992;4.198;2023-08-12T11:04:55;7.03;;;1.40;;
38853;SDS011;24606;51.992;4.198;2023-08-12T11:09:58;8.93;;;2.40;;
38853;SDS011;24606;51.992;4.198;2023-08-12T11:15:05;14.70;;;1.85;;
38853;SDS011;24606;51.992;4.198;2023-08-12T11:20:09;9.95;;;1.58;;
38853;SDS011;24606;51.992;4.198;2023-08-12T11:25:13;8.30;;;2.78;;
38853;SDS011;24606;51.992;4.198;2023-08-12T11:30:16;13.82;;;2.00;;
38853;SDS011;24606;51.992;4.198;2023-08-12T11:35:21;5.95;;;1.45;;
38853;SDS011;24606;51.992;4.198;2023-08-12T11:40:24;5.22;;;1.70;;
38853;SDS011;24606;51.992;4.198;2023-08-12T11:45:27;8.50;;;1.77;;
38853;SDS011;24606;51.992;4.198;2023-08-12T11:50:31;13.32;;;1.85;;
38853;SDS011;24606;51.992;4.198;2023-08-12T11:55:33;7.82;;;2.10;;
38853;SDS011;24606;51.992;4.198;2023-08-12T12:00:34;8.02;;;2.22;;
38853;SDS011;24606;51.992;4.198;2023-08-12T12:10:40;6.22;;;1.45;;
38853;SDS011;24606;51.992;4.198;2023-08-12T12:15:42;7.43;;;1.95;;
38853;SDS011;24606;51.992;4.198;2023-08-12T12:20:55;13.23;;;2.03;;
38853;SDS011;24606;51.992;4.198;2023-08-12T12:25:58;10.15;;;2.15;;
38853;SDS011;24606;51.992;4.198;2023-08-12T12:31:00;14.95;;;2.15;;
38853;SDS011;24606;51.992;4.198;2023-08-12T12:41:05;9.75;;;1.80;;
38853;SDS011;24606;51.992;4.198;2023-08-12T12:51:10;8.48;;;2.28;;
38853;SDS011;24606;51.992;4.198;2023-08-12T12:56:12;10.55;;;2.13;;
38853;SDS011;24606;51.992;4.198;2023-08-12T13:01:14;13.60;;;2.05;;
38853;SDS011;24606;51.992;4.198;2023-08-12T13:11:21;15.68;;;2.05;;
38853;SDS011;24606;51.992;4.198;2023-08-12T13:21:26;8.20;;;2.00;;
38853;SDS011;24606;51.992;4.198;2023-08-12T13:26:28;24.77;;;2.78;;
38853;SDS011;24606;51.992;4.198;2023-08-12T13:31:30;10.25;;;2.17;;
38853;SDS011;24606;51.992;4.198;2023-08-12T13:36:33;12.15;;;2.05;;
38853;SDS011;24606;51.992;4.198;2023-08-12T13:41:35;7.22;;;1.60;;
38853;SDS011;24606;51.992;4.198;2023-08-12T13:46:37;10.27;;;2.30;;
38853;SDS011;24606;51.992;4.198;2023-08-12T13:51:40;12.45;;;2.35;;
38853;SDS011;24606;51.992;4.198;2023-08-12T13:56:42;12.95;;;2.22;;
38853;SDS011;24606;51.992;4.198;2023-08-12T14:01:44;10.75;;;2.20;;
38853;SDS011;24606;51.992;4.198;2023-08-12T14:06:47;11.52;;;2.47;;
38853;SDS011;24606;51.992;4.198;2023-08-12T14:11:49;17.45;;;3.00;;
38853;SDS011;24606;51.992;4.198;2023-08-12T14:16:51;7.40;;;1.63;;
38853;SDS011;24606;51.992;4.198;2023-08-12T14:21:54;14.98;;;2.05;;
38853;SDS011;24606;51.992;4.198;2023-08-12T14:26:56;8.38;;;2.03;;
38853;SDS011;24606;51.992;4.198;2023-08-12T14:31:58;16.10;;;2.55;;
38853;SDS011;24606;51.992;4.198;2023-08-12T14:37:01;14.95;;;1.90;;
38853;SDS011;24606;51.992;4.198;2023-08-12T14:42:04;15.23;;;2.42;;
38853;SDS011;24606;51.992;4.198;2023-08-12T14:47:08;11.50;;;2.97;;
38853;SDS011;24606;51.992;4.198;2023-08-12T14:52:16;9.68;;;2.38;;
38853;SDS011;24606;51.992;4.198;2023-08-12T14:57:18;9.43;;;2.17;;
38853;SDS011;24606;51.992;4.198;2023-08-12T15:02:20;12.98;;;3.40;;
38853;SDS011;24606;51.992;4.198;2023-08-12T15:07:24;9.00;;;1.90;;
38853;SDS011;24606;51.992;4.198;2023-08-12T15:12:26;11.13;;;1.80;;
38853;SDS011;24606;51.992;4.198;2023-08-12T15:17:28;8.75;;;2.22;;
38853;SDS011;24606;51.992;4.198;2023-08-12T15:22:31;8.57;;;1.70;;
38853;SDS011;24606;51.992;4.198;2023-08-12T15:27:33;11.63;;;2.83;;
38853;SDS011;24606;51.992;4.198;2023-08-12T15:32:36;9.05;;;2.30;;
38853;SDS011;24606;51.992;4.198;2023-08-12T15:37:40;11.35;;;2.67;;
38853;SDS011;24606;51.992;4.198;2023-08-12T15:42:42;9.23;;;2.00;;
38853;SDS011;24606;51.992;4.198;2023-08-12T15:47:46;11.75;;;2.85;;
38853;SDS011;24606;51.992;4.198;2023-08-12T15:52:49;12.95;;;1.92;;
38853;SDS011;24606;51.992;4.198;2023-08-12T15:57:51;13.55;;;2.92;;
38853;SDS011;24606;51.992;4.198;2023-08-12T16:02:53;18.35;;;2.85;;
38853;SDS011;24606;51.992;4.198;2023-08-12T16:07:56;10.45;;;2.22;;
38853;SDS011;24606;51.992;4.198;2023-08-12T16:12:58;17.33;;;2.75;;
38853;SDS011;24606;51.992;4.198;2023-08-12T16:18:00;14.90;;;3.08;;
38853;SDS011;24606;51.992;4.198;2023-08-12T16:23:03;11.20;;;2.28;;
38853;SDS011;24606;51.992;4.198;2023-08-12T16:28:06;10.05;;;2.70;;
38853;SDS011;24606;51.992;4.198;2023-08-12T16:33:07;13.63;;;2.95;;
38853;SDS011;24606;51.992;4.198;2023-08-12T16:38:11;13.18;;;3.50;;
38853;SDS011;24606;51.992;4.198;2023-08-12T16:43:13;19.42;;;3.05;;
38853;SDS011;24606;51.992;4.198;2023-08-12T16:48:15;14.85;;;5.38;;
38853;SDS011;24606;51.992;4.198;2023-08-12T16:53:18;15.98;;;4.45;;
38853;SDS011;24606;51.992;4.198;2023-08-12T16:58:20;15.93;;;3.22;;
38853;SDS011;24606;51.992;4.198;2023-08-12T17:03:22;17.98;;;3.53;;
38853;SDS011;24606;51.992;4.198;2023-08-12T17:08:25;17.63;;;3.13;;
38853;SDS011;24606;51.992;4.198;2023-08-12T17:13:27;15.50;;;2.67;;
38853;SDS011;24606;51.992;4.198;2023-08-12T17:18:29;13.93;;;2.20;;
38853;SDS011;24606;51.992;4.198;2023-08-12T17:23:32;12.60;;;2.08;;
38853;SDS011;24606;51.992;4.198;2023-08-12T17:28:34;11.90;;;2.55;;
38853;SDS011;24606;51.992;4.198;2023-08-12T17:33:36;12.10;;;2.67;;
38853;SDS011;24606;51.992;4.198;2023-08-12T17:38:39;17.85;;;3.00;;
38853;SDS011;24606;51.992;4.198;2023-08-12T17:43:41;18.67;;;4.43;;
38853;SDS011;24606;51.992;4.198;2023-08-12T17:48:44;13.93;;;2.50;;
38853;SDS011;24606;51.992;4.198;2023-08-12T17:53:47;13.02;;;2.55;;
38853;SDS011;24606;51.992;4.198;2023-08-12T17:58:49;13.07;;;2.55;;
38853;SDS011;24606;51.992;4.198;2023-08-12T18:03:51;10.10;;;2.67;;
38853;SDS011;24606;51.992;4.198;2023-08-12T18:08:55;15.90;;;3.03;;
38853;SDS011;24606;51.992;4.198;2023-08-12T18:13:57;15.30;;;3.22;;
38853;SDS011;24606;51.992;4.198;2023-08-12T18:18:59;15.90;;;2.50;;
38853;SDS011;24606;51.992;4.198;2023-08-12T18:29:04;17.30;;;2.92;;
38853;SDS011;24606;51.992;4.198;2023-08-12T18:34:06;13.95;;;2.10;;
38853;SDS011;24606;51.992;4.198;2023-08-12T18:39:09;9.60;;;2.33;;
38853;SDS011;24606;51.992;4.198;2023-08-12T18:44:11;15.38;;;2.25;;
38853;SDS011;24606;51.992;4.198;2023-08-12T18:54:16;9.67;;;1.63;;
38853;SDS011;24606;51.992;4.198;2023-08-12T18:59:19;13.30;;;2.10;;
38853;SDS011;24606;51.992;4.198;2023-08-12T19:04:20;12.63;;;2.42;;
38853;SDS011;24606;51.992;4.198;2023-08-12T19:09:24;13.25;;;2.53;;
38853;SDS011;24606;51.992;4.198;2023-08-12T19:14:26;16.35;;;2.15;;
38853;SDS011;24606;51.992;4.198;2023-08-12T19:19:28;10.00;;;1.98;;
38853;SDS011;24606;51.992;4.198;2023-08-12T19:24:32;9.48;;;1.95;;
38853;SDS011;24606;51.992;4.198;2023-08-12T19:29:35;8.43;;;1.67;;
38853;SDS011;24606;51.992;4.198;2023-08-12T19:34:37;12.23;;;1.85;;
38853;SDS011;24606;51.992;4.198;2023-08-12T19:39:40;11.63;;;2.15;;
38853;SDS011;24606;51.992;4.198;2023-08-12T19:44:41;15.70;;;2.22;;
38853;SDS011;24606;51.992;4.198;2023-08-12T19:54:46;12.03;;;1.73;;
38853;SDS011;24606;51.992;4.198;2023-08-12T19:59:48;6.22;;;1.40;;
38853;SDS011;24606;51.992;4.198;2023-08-12T20:04:50;11.48;;;1.40;;
38853;SDS011;24606;51.992;4.198;2023-08-12T20:09:54;9.50;;;2.05;;
38853;SDS011;24606;51.992;4.198;2023-08-12T20:14:57;9.23;;;2.15;;
38853;SDS011;24606;51.992;4.198;2023-08-12T20:19:59;13.40;;;1.80;;
38853;SDS011;24606;51.992;4.198;2023-08-12T20:25:03;11.82;;;1.77;;
38853;SDS011;24606;51.992;4.198;2023-08-12T20:30:05;13.98;;;2.75;;
38853;SDS011;24606;51.992;4.198;2023-08-12T20:35:08;14.93;;;2.30;;
38853;SDS011;24606;51.992;4.198;2023-08-12T20:45:13;12.05;;;2.47;;
38853;SDS011;24606;51.992;4.198;2023-08-12T20:50:15;13.02;;;2.28;;
38853;SDS011;24606;51.992;4.198;2023-08-12T20:55:19;5.97;;;1.73;;
38853;SDS011;24606;51.992;4.198;2023-08-12T21:00:21;16.00;;;2.67;;
38853;SDS011;24606;51.992;4.198;2023-08-12T21:05:23;10.02;;;2.08;;
38853;SDS011;24606;51.992;4.198;2023-08-12T21:10:26;17.40;;;2.58;;
38853;SDS011;24606;51.992;4.198;2023-08-12T21:15:28;9.90;;;2.00;;
38853;SDS011;24606;51.992;4.198;2023-08-12T21:25:32;12.57;;;2.27;;
38853;SDS011;24606;51.992;4.198;2023-08-12T21:30:34;12.77;;;2.45;;
38853;SDS011;24606;51.992;4.198;2023-08-12T21:35:38;18.25;;;2.67;;
38853;SDS011;24606;51.992;4.198;2023-08-12T21:40:41;10.85;;;1.77;;
38853;SDS011;24606;51.992;4.198;2023-08-12T21:45:43;14.00;;;1.98;;
38853;SDS011;24606;51.992;4.198;2023-08-12T21:50:46;13.60;;;1.50;;
38853;SDS011;24606;51.992;4.198;2023-08-12T21:55:49;14.55;;;2.15;;
38853;SDS011;24606;51.992;4.198;2023-08-12T22:00:51;21.83;;;3.50;;
38853;SDS011;24606;51.992;4.198;2023-08-12T22:05:55;24.67;;;3.50;;
38853;SDS011;24606;51.992;4.198;2023-08-12T22:10:59;25.88;;;3.03;;
38853;SDS011;24606;51.992;4.198;2023-08-12T22:16:01;16.13;;;2.85;;
38853;SDS011;24606;51.992;4.198;2023-08-12T22:21:03;13.65;;;2.17;;
38853;SDS011;24606;51.992;4.198;2023-08-12T22:26:07;9.75;;;1.92;;
38853;SDS011;24606;51.992;4.198;2023-08-12T22:31:08;12.38;;;2.45;;
38853;SDS011;24606;51.992;4.198;2023-08-12T22:36:10;21.85;;;2.80;;
38853;SDS011;24606;51.992;4.198;2023-08-12T22:41:14;12.60;;;2.03;;
38853;SDS011;24606;51.992;4.198;2023-08-12T22:46:16;17.05;;;2.78;;
38853;SDS011;24606;51.992;4.198;2023-08-12T22:51:18;12.80;;;2.92;;
38853;SDS011;24606;51.992;4.198;2023-08-12T22:56:22;15.95;;;2.17;;
38853;SDS011;24606;51.992;4.198;2023-08-12T23:01:24;17.23;;;2.25;;
38853;SDS011;24606;51.992;4.198;2023-08-12T23:06:26;10.70;;;2.03;;
38853;SDS011;24606;51.992;4.198;2023-08-12T23:11:29;14.18;;;2.83;;
38853;SDS011;24606;51.992;4.198;2023-08-12T23:16:31;16.25;;;2.35;;
38853;SDS011;24606;51.992;4.198;2023-08-12T23:21:33;14.30;;;2.50;;
38853;SDS011;24606;51.992;4.198;2023-08-12T23:26:36;15.57;;;2.40;;
38853;SDS011;24606;51.992;4.198;2023-08-12T23:31:39;9.30;;;2.30;;
38853;SDS011;24606;51.992;4.198;2023-08-12T23:36:40;10.70;;;1.90;;
38853;SDS011;24606;51.992;4.198;2023-08-12T23:41:44;7.93;;;1.88;;
38853;SDS011;24606;51.992;4.198;2023-08-12T23:46:45;12.27;;;1.98;;
38853;SDS011;24606;51.992;4.198;2023-08-12T23:51:49;9.88;;;1.98;;
